createdAt,value
2018-04-20T00:00:21.080Z,70.60
2018-04-20T00:02:47.664Z,70.30
2018-04-20T00:05:14.676Z,70.70
2018-04-20T00:07:41.370Z,70.70
2018-04-20T00:10:08.172Z,70.90
2018-04-20T00:12:34.844Z,71.10
2018-04-20T00:15:01.392Z,71.00
2018-04-20T00:17:28.093Z,71.10
2018-04-20T00:19:54.700Z,71.10
2018-04-20T00:22:21.271Z,70.80
2018-04-20T00:24:48.265Z,70.40
2018-04-20T00:27:14.980Z,70.50
2018-04-20T00:29:41.589Z,70.70
2018-04-20T00:32:08.886Z,71.00
2018-04-20T00:34:35.526Z,71.00
2018-04-20T00:37:02.093Z,71.60
2018-04-20T00:39:28.705Z,71.70
2018-04-20T00:41:55.291Z,72.00
2018-04-20T00:44:21.832Z,72.00
2018-04-20T00:46:48.768Z,72.20
2018-04-20T00:49:15.747Z,72.50
2018-04-20T00:51:42.732Z,72.30
2018-04-20T00:54:21.469Z,72.30
2018-04-20T00:56:48.047Z,72.60
2018-04-20T00:59:14.670Z,72.70
2018-04-20T01:01:41.324Z,73.10
2018-04-20T01:04:08.006Z,73.70
2018-04-20T01:06:34.633Z,73.70
2018-04-20T01:09:01.297Z,74.30
2018-04-20T01:11:27.929Z,74.80
2018-04-20T01:13:54.527Z,75.10
2018-04-20T01:16:21.477Z,75.20
2018-04-20T01:18:48.421Z,75.20
2018-04-20T01:21:15.021Z,75.20
2018-04-20T01:23:41.839Z,75.50
2018-04-20T01:26:08.593Z,75.60
2018-04-20T01:28:35.191Z,75.40
2018-04-20T01:31:01.765Z,75.20
2018-04-20T01:33:28.400Z,75.30
2018-04-20T01:35:54.960Z,75.40
2018-04-20T01:38:21.528Z,75.10
2018-04-20T01:40:48.481Z,75.20
2018-04-20T01:43:15.142Z,75.20
2018-04-20T01:45:41.869Z,75.50
2018-04-20T01:48:09.038Z,74.90
2018-04-20T01:50:35.631Z,74.90
2018-04-20T01:53:02.308Z,75.00
2018-04-20T01:55:28.968Z,74.60
2018-04-20T01:57:55.895Z,74.20
2018-04-20T02:00:22.460Z,74.20
2018-04-20T02:02:49.024Z,74.40
2018-04-20T02:05:15.645Z,74.30
2018-04-20T02:07:42.309Z,74.30
2018-04-20T02:10:09.116Z,74.50
2018-04-20T02:12:36.113Z,74.70
2018-04-20T02:15:02.861Z,75.20
2018-04-20T02:17:29.569Z,75.80
2018-04-20T02:19:56.132Z,75.90
2018-04-20T02:22:22.740Z,75.40
2018-04-20T02:24:49.308Z,75.30
2018-04-20T02:27:16.232Z,74.90
2018-04-20T02:29:42.904Z,74.90
2018-04-20T02:32:09.744Z,74.90
2018-04-20T02:34:36.637Z,74.80
2018-04-20T02:37:03.261Z,75.20
2018-04-20T02:39:30.323Z,75.20
2018-04-20T02:41:56.876Z,75.10
2018-04-20T02:44:23.821Z,75.60
2018-04-20T02:46:50.765Z,75.10
2018-04-20T02:49:17.304Z,75.10
2018-04-20T02:51:43.952Z,75.20
2018-04-20T02:54:10.752Z,76.00
2018-04-20T02:56:38.017Z,75.60
2018-04-20T02:59:05.049Z,75.40
2018-04-20T03:01:32.033Z,75.70
2018-04-20T03:03:58.651Z,75.70
2018-04-20T03:06:25.285Z,75.40
2018-04-20T03:08:52.261Z,76.30
2018-04-20T03:11:19.164Z,76.50
2018-04-20T03:13:45.787Z,76.50
2018-04-20T03:16:12.428Z,77.10
2018-04-20T03:18:39.290Z,76.60
2018-04-20T03:21:06.042Z,76.60
2018-04-20T03:23:33.072Z,76.60
2018-04-20T03:26:00.060Z,76.90
2018-04-20T03:28:26.653Z,76.90
2018-04-20T03:30:53.227Z,76.60
2018-04-20T03:33:19.764Z,75.80
2018-04-20T03:35:46.354Z,75.40
2018-04-20T03:38:13.001Z,75.90
2018-04-20T03:40:39.727Z,76.20
2018-04-20T03:43:07.035Z,76.60
2018-04-20T03:45:33.688Z,76.60
2018-04-20T03:48:00.262Z,76.50
2018-04-20T03:50:27.220Z,77.50
2018-04-20T03:52:53.796Z,77.50
2018-04-20T03:55:20.709Z,77.50
2018-04-20T03:57:47.275Z,77.50
2018-04-20T04:00:13.947Z,77.70
2018-04-20T04:02:41.098Z,77.90
2018-04-20T04:05:08.049Z,77.90
2018-04-20T04:07:34.648Z,77.30
2018-04-20T04:10:01.279Z,77.80
2018-04-20T04:12:27.896Z,77.60
2018-04-20T04:14:54.520Z,77.70
2018-04-20T04:17:33.173Z,77.50
2018-04-20T04:20:11.971Z,77.30
2018-04-20T04:22:50.812Z,77.50
2018-04-20T04:25:29.481Z,77.10
2018-04-20T04:28:08.775Z,78.00
2018-04-20T04:30:35.400Z,78.00
2018-04-20T04:33:02.332Z,77.60
2018-04-20T04:35:28.978Z,77.60
2018-04-20T04:37:55.957Z,77.60
2018-04-20T04:40:22.866Z,77.20
2018-04-20T04:42:49.436Z,77.20
2018-04-20T04:45:16.040Z,77.60
2018-04-20T04:47:42.678Z,77.30
2018-04-20T04:50:09.396Z,77.20
2018-04-20T04:52:36.058Z,77.10
2018-04-20T04:55:02.719Z,77.00
2018-04-20T04:57:29.697Z,76.00
2018-04-20T04:59:56.279Z,76.00
2018-04-20T05:02:22.812Z,75.40
2018-04-20T05:04:49.411Z,75.00
2018-04-20T05:07:16.385Z,74.70
2018-04-20T05:09:42.953Z,74.70
2018-04-20T05:12:09.644Z,74.50
2018-04-20T05:14:36.340Z,73.90
2018-04-20T05:17:02.976Z,73.60
2018-04-20T05:19:29.564Z,73.00
2018-04-20T05:21:56.137Z,74.70
2018-04-20T05:24:22.680Z,74.50
2018-04-20T05:26:49.257Z,74.40
2018-04-20T05:29:15.832Z,74.30
2018-04-20T05:31:42.434Z,73.80
2018-04-20T05:34:09.478Z,73.50
2018-04-20T05:36:36.549Z,72.50
2018-04-20T05:39:03.321Z,72.50
2018-04-20T05:41:30.374Z,72.50
2018-04-20T05:43:57.053Z,72.50
2018-04-20T05:46:23.689Z,71.50
2018-04-20T05:48:50.697Z,71.60
2018-04-20T05:51:17.317Z,71.70
2018-04-20T05:53:43.943Z,70.50
2018-04-20T05:56:10.797Z,69.00
2018-04-20T05:58:37.563Z,68.60
2018-04-20T06:01:04.291Z,68.60
2018-04-20T06:03:30.925Z,68.20
2018-04-20T06:05:57.616Z,68.40
2018-04-20T06:08:24.231Z,68.40
2018-04-20T06:10:50.861Z,68.20
2018-04-20T06:13:17.483Z,66.70
2018-04-20T06:15:44.100Z,66.70
2018-04-20T06:18:11.170Z,65.70
2018-04-20T06:20:37.917Z,65.70
2018-04-20T06:23:04.565Z,66.10
2018-04-20T06:25:31.216Z,66.20
2018-04-20T06:27:57.900Z,64.90
2018-04-20T06:30:24.464Z,65.60
2018-04-20T06:32:51.037Z,64.20
2018-04-20T06:35:17.612Z,64.30
2018-04-20T06:37:44.181Z,63.70
2018-04-20T06:40:10.897Z,63.90
2018-04-20T06:42:37.576Z,63.00
2018-04-20T06:45:04.172Z,63.20
2018-04-20T06:47:30.744Z,62.10
2018-04-20T06:49:57.740Z,63.00
2018-04-20T06:52:24.285Z,63.00
2018-04-20T06:54:50.868Z,63.10
2018-04-20T06:57:17.468Z,60.90
2018-04-20T06:59:44.036Z,61.60
2018-04-20T07:02:10.661Z,61.20
2018-04-20T07:04:37.305Z,61.60
2018-04-20T07:07:03.945Z,61.10
2018-04-20T07:09:30.897Z,61.70
2018-04-20T07:11:57.884Z,61.90
2018-04-20T07:14:24.458Z,61.90
2018-04-20T07:16:51.068Z,62.00
2018-04-20T07:19:17.642Z,61.00
2018-04-20T07:21:44.188Z,60.30
2018-04-20T07:24:10.868Z,60.20
2018-04-20T07:26:37.517Z,60.70
2018-04-20T07:29:04.063Z,60.60
2018-04-20T07:31:30.645Z,59.20
2018-04-20T07:33:57.633Z,58.10
2018-04-20T07:36:24.176Z,58.10
2018-04-20T07:38:50.761Z,58.90
2018-04-20T07:41:17.341Z,58.90
2018-04-20T07:43:44.260Z,58.70
2018-04-20T07:46:10.956Z,58.70
2018-04-20T07:48:37.732Z,58.30
2018-04-20T07:51:04.303Z,57.80
2018-04-20T07:53:30.882Z,57.80
2018-04-20T07:55:57.523Z,59.40
2018-04-20T07:58:24.453Z,55.80
2018-04-20T08:00:51.033Z,55.80
2018-04-20T08:03:17.613Z,55.10
2018-04-20T08:05:44.201Z,56.00
2018-04-20T08:08:10.944Z,56.90
2018-04-20T08:10:37.724Z,55.70
2018-04-20T08:13:04.727Z,56.40
2018-04-20T08:15:31.342Z,56.40
2018-04-20T08:17:58.320Z,54.30
2018-04-20T08:20:24.860Z,54.30
2018-04-20T08:22:51.796Z,54.30
2018-04-20T08:25:18.368Z,54.30
2018-04-20T08:27:45.294Z,55.40
2018-04-20T08:30:11.963Z,55.40
2018-04-20T08:32:38.655Z,55.20
2018-04-20T08:35:05.247Z,55.50
2018-04-20T08:37:31.833Z,56.80
2018-04-20T08:39:58.465Z,55.80
2018-04-20T08:42:25.376Z,56.00
2018-04-20T08:44:51.965Z,56.00
2018-04-20T08:47:18.919Z,55.40
2018-04-20T08:49:45.817Z,54.70
2018-04-20T08:52:12.462Z,54.60
2018-04-20T08:54:39.134Z,55.10
2018-04-20T08:57:05.731Z,56.00
2018-04-20T08:59:32.319Z,54.10
2018-04-20T09:01:59.030Z,53.90
2018-04-20T09:04:25.596Z,54.60
2018-04-20T09:06:52.178Z,53.60
2018-04-20T09:09:18.747Z,52.40
2018-04-20T09:11:45.321Z,52.50
2018-04-20T09:14:12.345Z,53.40
2018-04-20T09:16:39.390Z,52.40
2018-04-20T09:19:06.422Z,52.80
2018-04-20T09:21:33.037Z,52.80
2018-04-20T09:24:00.056Z,53.00
2018-04-20T09:26:26.654Z,53.00
2018-04-20T09:28:53.228Z,51.90
2018-04-20T09:31:19.813Z,52.80
2018-04-20T09:33:46.364Z,52.20
2018-04-20T09:36:13.030Z,52.10
2018-04-20T09:38:39.689Z,50.50
2018-04-20T09:41:06.922Z,52.00
2018-04-20T09:43:33.549Z,51.90
2018-04-20T09:46:00.132Z,51.40
2018-04-20T09:48:26.744Z,51.60
2018-04-20T09:50:53.375Z,50.50
2018-04-20T09:53:19.950Z,50.50
2018-04-20T09:55:46.485Z,49.80
2018-04-20T09:58:13.096Z,49.60
2018-04-20T10:00:40.728Z,49.90
2018-04-20T10:03:07.475Z,50.20
2018-04-20T10:05:34.505Z,49.70
2018-04-20T10:08:01.084Z,49.70
2018-04-20T10:10:27.686Z,51.00
2018-04-20T10:12:54.303Z,49.30
2018-04-20T10:15:21.342Z,48.80
2018-04-20T10:17:47.880Z,48.80
2018-04-20T10:20:14.461Z,48.30
2018-04-20T10:22:41.429Z,50.60
2018-04-20T10:25:08.077Z,50.60
2018-04-20T10:27:35.113Z,48.90
2018-04-20T10:30:01.689Z,48.90
2018-04-20T10:32:28.237Z,48.20
2018-04-20T10:34:55.217Z,48.50
2018-04-20T10:37:21.816Z,48.60
2018-04-20T10:39:48.364Z,47.80
2018-04-20T10:42:14.956Z,48.90
2018-04-20T10:44:41.573Z,48.00
2018-04-20T10:47:08.579Z,47.90
2018-04-20T10:49:35.156Z,47.90
2018-04-20T10:52:01.753Z,47.50
2018-04-20T10:54:28.309Z,47.90
2018-04-20T10:56:54.920Z,46.80
2018-04-20T10:59:21.517Z,46.80
2018-04-20T11:01:48.060Z,46.90
2018-04-20T11:04:14.627Z,46.40
2018-04-20T11:06:41.227Z,46.90
2018-04-20T11:09:07.842Z,47.50
2018-04-20T11:11:34.426Z,47.00
2018-04-20T11:14:01.102Z,46.70
2018-04-20T11:16:27.808Z,46.00
2018-04-20T11:18:56.038Z,45.70
2018-04-20T11:21:22.753Z,45.70
2018-04-20T11:23:49.304Z,44.40
2018-04-20T11:26:16.257Z,45.90
2018-04-20T11:28:43.276Z,45.20
2018-04-20T11:31:10.354Z,46.50
2018-04-20T11:33:37.454Z,45.40
2018-04-20T11:36:04.049Z,45.40
2018-04-20T11:38:30.588Z,45.40
2018-04-20T11:40:58.486Z,44.10
2018-04-20T11:43:25.073Z,44.30
2018-04-20T11:45:51.633Z,44.20
2018-04-20T11:48:18.213Z,46.00
2018-04-20T11:50:44.797Z,47.00
2018-04-20T11:53:11.784Z,44.10
2018-04-20T11:55:38.472Z,44.10
2018-04-20T11:58:05.162Z,44.40
2018-04-20T12:00:32.081Z,44.40
2018-04-20T12:02:58.708Z,44.40
2018-04-20T12:05:25.283Z,43.90
2018-04-20T12:07:51.833Z,42.40
2018-04-20T12:10:18.416Z,43.80
2018-04-20T12:12:44.990Z,43.90
2018-04-20T12:15:11.642Z,43.00
2018-04-20T12:17:38.356Z,42.20
2018-04-20T12:20:04.970Z,42.20
2018-04-20T12:22:31.514Z,41.80
2018-04-20T12:24:58.159Z,42.70
2018-04-20T12:27:32.048Z,43.50
2018-04-20T12:29:58.699Z,43.50
2018-04-20T12:32:25.341Z,41.00
2018-04-20T12:34:51.904Z,39.00
2018-04-20T12:37:18.485Z,39.70
2018-04-20T12:39:45.065Z,40.50
2018-04-20T12:42:12.040Z,43.00
2018-04-20T12:44:38.734Z,43.10
2018-04-20T12:47:05.389Z,43.40
2018-04-20T12:49:31.962Z,44.10
2018-04-20T12:51:58.980Z,44.20
2018-04-20T12:54:25.634Z,44.20
2018-04-20T12:56:52.205Z,40.60
2018-04-20T12:59:18.791Z,39.20
2018-04-20T13:01:45.386Z,42.30
2018-04-20T13:04:12.006Z,43.60
2018-04-20T13:06:38.756Z,43.30
2018-04-20T13:09:05.798Z,43.20
2018-04-20T13:11:32.785Z,43.50
2018-04-20T13:13:59.390Z,43.50
2018-04-20T13:16:26.014Z,43.70
2018-04-20T13:18:52.932Z,44.30
2018-04-20T13:21:19.508Z,44.30
2018-04-20T13:23:46.088Z,43.60
2018-04-20T13:26:13.056Z,43.10
2018-04-20T13:28:40.114Z,43.10
2018-04-20T13:31:06.874Z,40.00
2018-04-20T13:33:33.865Z,42.80
2018-04-20T13:36:00.496Z,42.80
2018-04-20T13:38:27.151Z,41.30
2018-04-20T13:40:53.740Z,37.30
2018-04-20T13:43:20.728Z,35.00
2018-04-20T13:45:47.344Z,35.00
2018-04-20T13:48:14.273Z,35.30
2018-04-20T13:50:40.983Z,35.30
2018-04-20T13:53:07.700Z,36.10
2018-04-20T13:55:34.272Z,38.50
2018-04-20T13:58:00.853Z,41.20
2018-04-20T14:00:27.608Z,42.10
2018-04-20T14:02:54.174Z,41.10
2018-04-20T14:05:20.757Z,42.10
2018-04-20T14:07:47.718Z,41.80
2018-04-20T14:10:14.629Z,40.50
2018-04-20T14:12:41.363Z,40.50
2018-04-20T14:15:08.137Z,41.80
2018-04-20T14:17:34.864Z,41.70
2018-04-20T14:20:01.448Z,42.30
2018-04-20T14:22:28.151Z,43.60
2018-04-20T14:24:54.717Z,39.00
2018-04-20T14:27:21.297Z,41.20
2018-04-20T14:29:47.879Z,37.00
2018-04-20T14:32:14.511Z,36.00
2018-04-20T14:34:41.242Z,37.60
2018-04-20T14:37:08.281Z,42.70
2018-04-20T14:39:34.849Z,42.70
2018-04-20T14:42:01.435Z,43.30
2018-04-20T14:44:28.057Z,43.80
2018-04-20T14:46:54.627Z,43.30
2018-04-20T14:49:21.209Z,44.40
2018-04-20T14:51:47.784Z,44.30
2018-04-20T14:54:14.412Z,43.90
2018-04-20T14:56:41.093Z,43.50
2018-04-20T14:59:08.260Z,44.10
2018-04-20T15:01:34.868Z,44.10
2018-04-20T15:04:01.458Z,43.90
2018-04-20T15:06:28.119Z,44.00
2018-04-20T15:08:54.705Z,43.80
2018-04-20T15:11:21.276Z,43.30
2018-04-20T15:13:47.860Z,43.90
2018-04-20T15:16:14.990Z,44.70
2018-04-20T15:18:41.579Z,44.70
2018-04-20T15:21:08.436Z,44.20
2018-04-20T15:23:34.988Z,44.60
2018-04-20T15:26:01.561Z,44.90
2018-04-20T15:28:28.252Z,44.50
2018-04-20T15:30:54.828Z,45.80
2018-04-20T15:33:21.963Z,44.80
2018-04-20T15:35:49.346Z,45.80
2018-04-20T15:38:16.272Z,45.20
2018-04-20T15:40:42.951Z,45.20
2018-04-20T15:43:09.982Z,45.60
2018-04-20T15:45:36.960Z,44.30
2018-04-20T15:48:04.037Z,45.50
2018-04-20T15:50:30.628Z,45.50
2018-04-20T15:52:57.249Z,45.20
2018-04-20T15:55:23.859Z,46.20
2018-04-20T15:57:50.430Z,45.70
2018-04-20T16:00:16.968Z,45.80
2018-04-20T16:02:43.978Z,45.20
2018-04-20T16:05:10.684Z,45.30
2018-04-20T16:07:37.353Z,45.50
2018-04-20T16:10:04.039Z,45.90
2018-04-20T16:12:30.609Z,46.00
2018-04-20T16:14:57.597Z,46.90
2018-04-20T16:17:24.217Z,46.90
2018-04-20T16:19:50.788Z,47.00
2018-04-20T16:22:17.320Z,47.10
2018-04-20T16:24:44.383Z,47.90
2018-04-20T16:27:11.390Z,47.70
2018-04-20T16:29:38.055Z,47.80
2018-04-20T16:32:04.660Z,48.50
2018-04-20T16:34:31.232Z,48.10
2018-04-20T16:36:57.835Z,48.20
2018-04-20T16:39:24.798Z,48.40
2018-04-20T16:41:51.399Z,48.40
2018-04-20T16:44:17.950Z,48.50
2018-04-20T16:46:44.621Z,48.90
2018-04-20T16:49:11.284Z,49.00
2018-04-20T16:51:37.949Z,48.90
2018-04-20T16:54:04.552Z,49.40
2018-04-20T16:56:31.164Z,49.60
2018-04-20T16:58:57.768Z,50.00
2018-04-20T17:01:24.829Z,50.20
2018-04-20T17:03:51.396Z,50.10
2018-04-20T17:06:17.956Z,49.90
2018-04-20T17:08:44.538Z,49.90
2018-04-20T17:11:11.322Z,50.20
2018-04-20T17:13:38.055Z,50.30
2018-04-20T17:16:05.113Z,50.40
2018-04-20T17:18:31.699Z,50.40
2018-04-20T17:20:58.589Z,50.30
2018-04-20T17:23:25.287Z,50.20
2018-04-20T17:25:52.253Z,50.70
2018-04-20T17:28:19.186Z,51.40
2018-04-20T17:30:45.781Z,51.40
2018-04-20T17:33:12.459Z,50.10
2018-04-20T17:35:39.264Z,50.90
2018-04-20T17:38:05.895Z,50.30
2018-04-20T17:40:32.536Z,50.60
2018-04-20T17:42:59.186Z,50.70
2018-04-20T17:45:25.803Z,50.30
2018-04-20T17:47:52.391Z,50.30
2018-04-20T17:50:18.933Z,50.50
2018-04-20T17:52:45.573Z,50.80
2018-04-20T17:55:12.252Z,51.40
2018-04-20T17:57:39.024Z,52.30
2018-04-20T18:00:05.703Z,51.90
2018-04-20T18:02:32.305Z,52.10
2018-04-20T18:04:59.274Z,52.40
2018-04-20T18:07:25.891Z,52.40
2018-04-20T18:09:52.860Z,52.60
2018-04-20T18:12:19.777Z,53.30
2018-04-20T18:14:46.358Z,53.20
2018-04-20T18:17:13.016Z,53.40
2018-04-20T18:19:39.715Z,53.50
2018-04-20T18:22:06.492Z,53.60
2018-04-20T18:24:33.175Z,53.50
2018-04-20T18:26:59.730Z,53.50
2018-04-20T18:29:26.725Z,53.60
2018-04-20T18:31:53.348Z,53.60
2018-04-20T18:34:19.944Z,54.10
2018-04-20T18:36:46.516Z,54.70
2018-04-20T18:39:13.544Z,55.10
2018-04-20T18:41:40.256Z,55.20
2018-04-20T18:44:07.020Z,55.60
2018-04-20T18:46:33.724Z,55.40
2018-04-20T18:49:00.657Z,54.80
2018-04-20T18:51:27.657Z,55.70
2018-04-20T18:53:56.319Z,55.70
2018-04-20T18:56:23.586Z,56.70
2018-04-20T18:58:50.937Z,56.40
2018-04-20T19:01:18.529Z,56.20
2018-04-20T19:03:46.048Z,56.40
2018-04-20T19:06:12.662Z,56.00
2018-04-20T19:08:39.415Z,56.10
2018-04-20T19:11:06.076Z,56.00
2018-04-20T19:13:32.725Z,56.50
2018-04-20T19:15:59.368Z,57.50
2018-04-20T19:18:26.365Z,58.40
2018-04-20T19:20:53.849Z,58.50
2018-04-20T19:23:20.380Z,58.60
2018-04-20T19:25:46.989Z,58.40
2018-04-20T19:28:14.869Z,58.20
2018-04-20T19:30:41.866Z,58.60
2018-04-20T19:33:08.538Z,58.60
2018-04-20T19:35:35.207Z,58.90
2018-04-20T19:38:02.220Z,59.40
2018-04-20T19:40:29.903Z,59.40
2018-04-20T19:42:56.489Z,59.60
2018-04-20T19:45:23.401Z,59.30
2018-04-20T19:47:50.814Z,59.30
2018-04-20T19:50:17.772Z,59.10
2018-04-20T19:52:44.734Z,58.80
2018-04-20T19:55:11.413Z,58.80
2018-04-20T19:57:38.097Z,58.80
2018-04-20T20:00:06.607Z,59.00
2018-04-20T20:02:33.582Z,59.50
2018-04-20T20:05:00.677Z,59.70
2018-04-20T20:07:27.950Z,59.70
2018-04-20T20:09:54.525Z,59.70
2018-04-20T20:12:21.355Z,59.30
2018-04-20T20:14:47.904Z,59.10
2018-04-20T20:17:14.528Z,59.30
2018-04-20T20:19:41.259Z,59.30
2018-04-20T20:22:08.029Z,58.60
2018-04-20T20:24:34.706Z,58.90
2018-04-20T20:27:01.325Z,58.30
2018-04-20T20:29:27.885Z,58.00
2018-04-20T20:31:54.466Z,58.50
2018-04-20T20:34:21.045Z,59.30
2018-04-20T20:36:47.978Z,60.60
2018-04-20T20:39:14.677Z,60.60
2018-04-20T20:41:41.341Z,60.50
2018-04-20T20:44:08.057Z,60.70
2018-04-20T20:46:34.665Z,60.90
2018-04-20T20:49:03.163Z,60.70
2018-04-20T20:51:29.735Z,60.40
2018-04-20T20:53:56.731Z,60.30
2018-04-20T20:56:23.313Z,60.40
2018-04-20T20:58:49.858Z,60.90
2018-04-20T21:01:16.476Z,60.80
2018-04-20T21:03:43.106Z,61.20
2018-04-20T21:06:09.869Z,61.40
2018-04-20T21:08:36.607Z,61.30
2018-04-20T21:11:03.217Z,61.70
2018-04-20T21:13:29.792Z,61.90
2018-04-20T21:15:56.736Z,61.10
2018-04-20T21:18:23.355Z,61.10
2018-04-20T21:20:49.905Z,61.00
2018-04-20T21:23:16.551Z,60.70
2018-04-20T21:25:43.189Z,61.20
2018-04-20T21:28:09.827Z,61.90
2018-04-20T21:30:37.521Z,62.00
2018-04-20T21:33:04.525Z,61.60
2018-04-20T21:35:31.444Z,61.60
2018-04-20T21:37:58.033Z,61.60
2018-04-20T21:40:24.977Z,62.50
2018-04-20T21:42:51.513Z,62.50
2018-04-20T21:45:18.142Z,62.90
2018-04-20T21:47:44.817Z,63.20
2018-04-20T21:50:11.784Z,63.70
2018-04-20T21:52:38.862Z,64.00
2018-04-20T21:55:05.465Z,64.10
2018-04-20T21:57:32.385Z,63.70
2018-04-20T21:59:58.977Z,63.80
2018-04-20T22:02:25.568Z,63.80
2018-04-20T22:04:52.120Z,63.70
2018-04-20T22:07:18.689Z,63.70
2018-04-20T22:09:45.322Z,63.80
2018-04-20T22:12:11.939Z,64.50
2018-04-20T22:14:38.653Z,64.90
2018-04-20T22:17:05.383Z,64.90
2018-04-20T22:19:32.112Z,65.00
2018-04-20T22:21:58.716Z,65.00
2018-04-20T22:24:25.358Z,64.60
2018-04-20T22:26:51.913Z,64.20
2018-04-20T22:29:18.487Z,64.40
2018-04-20T22:31:45.488Z,65.00
2018-04-20T22:34:12.132Z,65.00
2018-04-20T22:36:38.880Z,65.40
2018-04-20T22:39:05.497Z,65.60
2018-04-20T22:41:32.143Z,65.90
2018-04-20T22:43:58.724Z,65.30
2018-04-20T22:46:25.302Z,65.60
2018-04-20T22:48:51.845Z,65.00
2018-04-20T22:51:18.476Z,65.20
2018-04-20T22:53:45.064Z,65.20
2018-04-20T22:56:11.695Z,65.10
2018-04-20T22:58:39.321Z,65.20
2018-04-20T23:01:06.046Z,65.50
2018-04-20T23:03:32.621Z,65.80
2018-04-20T23:05:59.308Z,66.20
2018-04-20T23:08:25.903Z,66.20
2018-04-20T23:10:52.924Z,66.80
2018-04-20T23:13:19.487Z,66.80
2018-04-20T23:15:46.055Z,67.30
2018-04-20T23:18:13.005Z,67.30
2018-04-20T23:20:40.133Z,67.90
2018-04-20T23:23:07.272Z,67.90
2018-04-20T23:25:34.228Z,68.20
2018-04-20T23:28:00.871Z,68.20
2018-04-20T23:30:27.499Z,68.50
2018-04-20T23:32:54.412Z,68.50
2018-04-20T23:35:20.972Z,68.50
2018-04-20T23:37:47.557Z,68.60
2018-04-20T23:40:14.116Z,68.30
2018-04-20T23:42:40.870Z,67.90
2018-04-20T23:45:07.628Z,67.90
2018-04-20T23:47:34.604Z,67.70
2018-04-20T23:50:01.192Z,67.70
2018-04-20T23:52:28.219Z,67.80
2018-04-20T23:54:54.760Z,67.80
2018-04-20T23:57:21.332Z,67.80
2018-04-20T23:59:54.677Z,67.40
